createdAt,value
2023-02-11T00:02:10.947Z,103248.13
2023-02-11T00:07:12.478Z,103256.38
2023-02-11T00:12:13.969Z,103270.56
2023-02-11T00:17:15.479Z,103255.06
2023-02-11T00:22:17.025Z,103256.84
2023-02-11T00:27:18.516Z,103260.31
2023-02-11T00:32:20.075Z,103252.69
2023-02-11T00:37:21.813Z,103234.41
2023-02-11T00:42:23.340Z,103225.53
2023-02-11T00:47:24.915Z,103213.03
2023-02-11T00:52:26.461Z,103226.34
2023-02-11T00:57:28.016Z,103230.47
2023-02-11T01:02:29.528Z,103232.22
2023-02-11T01:07:31.046Z,103257.50
2023-02-11T01:12:35.938Z,103258.13
2023-02-11T01:17:37.896Z,103248.78
2023-02-11T01:22:39.635Z,103240.47
2023-02-11T01:27:41.515Z,103254.03
2023-02-11T01:32:43.036Z,103253.16
2023-02-11T01:37:44.509Z,103236.88
2023-02-11T01:42:48.828Z,103252.88
2023-02-11T01:47:51.524Z,103245.25
2023-02-11T01:52:53.064Z,103243.91
2023-02-11T01:58:00.036Z,103254.38
2023-02-11T02:03:31.801Z,103252.09
2023-02-11T02:08:55.002Z,103241.84
2023-02-11T02:13:56.566Z,103236.25
2023-02-11T02:19:22.271Z,103241.06
2023-02-11T02:24:48.367Z,103239.38
2023-02-11T02:30:04.016Z,103221.44
2023-02-11T02:35:37.850Z,103218.25
2023-02-11T02:40:50.939Z,103229.41
2023-02-11T02:45:52.675Z,103244.72
2023-02-11T02:51:29.775Z,103239.38
2023-02-11T02:56:49.983Z,103233.63
2023-02-11T03:02:05.148Z,103223.88
2023-02-11T03:07:26.029Z,103209.78
2023-02-11T03:12:31.812Z,103215.44
2023-02-11T03:17:36.041Z,103208.41
2023-02-11T03:22:45.525Z,103211.34
2023-02-11T03:27:54.256Z,103196.88
2023-02-11T03:33:08.585Z,103192.47
2023-02-11T03:38:19.903Z,103198.78
2023-02-11T03:43:26.511Z,103201.56
2023-02-11T03:48:38.767Z,103183.88
2023-02-11T03:53:43.356Z,103175.97
2023-02-11T03:58:46.070Z,103179.94
2023-02-11T04:03:47.598Z,103167.44
2023-02-11T04:08:49.134Z,103180.81
2023-02-11T04:13:50.663Z,103192.63
2023-02-11T04:18:52.207Z,103190.69
2023-02-11T04:23:53.769Z,103197.81
2023-02-11T04:28:55.296Z,103205.63
2023-02-11T04:33:56.901Z,103204.66
2023-02-11T04:38:58.361Z,103208.63
2023-02-11T04:43:59.905Z,103208.78
2023-02-11T04:49:01.399Z,103219.03
2023-02-11T04:54:02.973Z,103212.75
2023-02-11T04:59:05.169Z,103220.13
2023-02-11T05:04:06.692Z,103210.31
2023-02-11T05:09:08.230Z,103211.28
2023-02-11T05:14:09.778Z,103232.19
2023-02-11T05:19:11.533Z,103232.28
2023-02-11T05:24:13.072Z,103226.97
2023-02-11T05:29:14.574Z,103214.44
2023-02-11T05:34:16.089Z,103212.81
2023-02-11T05:39:17.617Z,103231.72
2023-02-11T05:44:19.172Z,103227.31
2023-02-11T05:49:20.668Z,103228.28
2023-02-11T05:54:22.345Z,103230.75
2023-02-11T05:59:23.819Z,103221.91
2023-02-11T06:04:25.308Z,103221.25
2023-02-11T06:09:27.132Z,103226.00
2023-02-11T06:14:28.769Z,103217.16
2023-02-11T06:19:31.115Z,103218.19
2023-02-11T06:24:54.968Z,103227.09
2023-02-11T06:29:54.309Z,103231.50
2023-02-11T06:34:55.797Z,103223.44
2023-02-11T06:39:57.328Z,103224.47
2023-02-11T06:44:58.934Z,103217.97
2023-02-11T06:50:00.685Z,103223.81
2023-02-11T06:55:02.615Z,103229.78
2023-02-11T07:00:05.833Z,103228.69
2023-02-11T07:05:08.200Z,103224.16
2023-02-11T07:10:09.820Z,103241.22
2023-02-11T07:15:11.339Z,103230.41
2023-02-11T07:20:14.707Z,103242.75
2023-02-11T07:25:16.301Z,103236.38
2023-02-11T07:30:17.901Z,103239.66
2023-02-11T07:35:19.486Z,103255.56
2023-02-11T07:40:21.043Z,103253.50
2023-02-11T07:45:22.544Z,103256.06
2023-02-11T07:50:24.038Z,103258.69
2023-02-11T07:55:25.567Z,103271.06
2023-02-11T08:00:27.219Z,103273.41
2023-02-11T08:05:28.891Z,103268.88
2023-02-11T08:10:30.393Z,103274.72
2023-02-11T08:15:31.877Z,103272.78
2023-02-11T08:20:33.372Z,103279.59
2023-02-11T08:25:35.034Z,103289.84
2023-02-11T08:30:36.623Z,103295.69
2023-02-11T08:35:39.837Z,103296.00
2023-02-11T08:40:41.325Z,103290.78
2023-02-11T08:45:42.914Z,103299.09
2023-02-11T08:50:44.420Z,103300.69
2023-02-11T08:55:50.834Z,103311.31
2023-02-11T09:00:52.860Z,103301.16
2023-02-11T09:05:54.884Z,103312.13
2023-02-11T09:10:57.372Z,103326.81
2023-02-11T09:15:59.772Z,103332.44
2023-02-11T09:21:09.307Z,103332.81
2023-02-11T09:26:15.056Z,103342.97
2023-02-11T09:31:19.153Z,103342.94
2023-02-11T09:36:24.824Z,103348.09
2023-02-11T09:41:37.328Z,103341.34
2023-02-11T09:46:42.400Z,103368.03
2023-02-11T09:51:54.782Z,103372.81
2023-02-11T09:56:56.728Z,103377.91
2023-02-11T10:02:13.137Z,103388.44
2023-02-11T10:07:14.621Z,103395.47
2023-02-11T10:12:28.189Z,103400.88
2023-02-11T10:18:17.197Z,103401.97
2023-02-11T10:23:33.861Z,103411.44
2023-02-11T10:28:37.006Z,103418.69
2023-02-11T10:33:41.189Z,103412.47
2023-02-11T10:38:42.896Z,103424.16
2023-02-11T10:43:44.614Z,103409.94
2023-02-11T10:48:55.282Z,103426.69
2023-02-11T10:54:07.902Z,103420.19
2023-02-11T10:59:31.334Z,103406.31
2023-02-11T11:04:35.395Z,103419.47
2023-02-11T11:10:09.305Z,103425.19
2023-02-11T11:15:10.767Z,103430.31
2023-02-11T11:20:27.597Z,103429.34
2023-02-11T11:25:30.493Z,103436.63
2023-02-11T11:30:39.173Z,103443.06
2023-02-11T11:35:41.004Z,103450.50
2023-02-11T11:40:42.515Z,103440.19
2023-02-11T11:45:56.257Z,103443.81
2023-02-11T11:51:01.996Z,103454.53
2023-02-11T11:56:09.042Z,103452.75
2023-02-11T12:01:52.809Z,103463.59
2023-02-11T12:07:24.744Z,103474.97
2023-02-11T12:12:27.306Z,103467.47
2023-02-11T12:17:52.311Z,103468.16
2023-02-11T12:23:15.599Z,103470.00
2023-02-11T12:28:51.139Z,103462.75
2023-02-11T12:34:22.349Z,103462.97
2023-02-11T12:39:49.837Z,103462.41
2023-02-11T12:44:51.740Z,103458.50
2023-02-11T12:50:22.457Z,103462.91
2023-02-11T12:55:26.764Z,103465.94
2023-02-11T13:00:41.466Z,103463.50
2023-02-11T13:05:51.688Z,103455.78
2023-02-11T13:11:02.115Z,103462.22
2023-02-11T13:16:17.286Z,103463.00
2023-02-11T13:21:30.320Z,103464.75
2023-02-11T13:27:05.603Z,103457.88
2023-02-11T13:32:07.334Z,103459.88
2023-02-11T13:37:24.072Z,103455.53
2023-02-11T13:42:25.685Z,103445.72
2023-02-11T13:47:37.212Z,103446.94
2023-02-11T13:52:39.353Z,103452.91
2023-02-11T13:57:42.177Z,103459.16
2023-02-11T14:03:02.216Z,103452.72
2023-02-11T14:08:28.024Z,103448.47
2023-02-11T14:13:31.964Z,103457.22
2023-02-11T14:18:58.186Z,103458.97
2023-02-11T14:24:02.470Z,103460.53
2023-02-11T14:29:09.491Z,103474.28
2023-02-11T14:34:22.889Z,103478.75
2023-02-11T14:39:45.176Z,103482.88
2023-02-11T14:44:50.278Z,103483.16
2023-02-11T14:49:51.971Z,103487.81
2023-02-11T14:55:06.268Z,103492.00
2023-02-11T15:00:22.091Z,103483.81
2023-02-11T15:05:29.039Z,103487.34
2023-02-11T15:10:35.412Z,103492.13
2023-02-11T15:15:40.757Z,103487.25
2023-02-11T15:20:42.301Z,103485.31
2023-02-11T15:25:51.162Z,103481.88
2023-02-11T15:31:01.626Z,103486.66
2023-02-11T15:36:03.859Z,103492.47
2023-02-11T15:41:07.465Z,103505.63
2023-02-11T15:46:10.598Z,103496.81
2023-02-11T15:51:21.835Z,103487.56
2023-02-11T15:56:25.437Z,103497.75
2023-02-11T16:01:34.812Z,103506.41
2023-02-11T16:06:41.358Z,103503.13
2023-02-11T16:11:48.835Z,103498.16
2023-02-11T16:16:54.665Z,103505.75
2023-02-11T16:21:58.333Z,103509.22
2023-02-11T16:27:02.331Z,103518.75
2023-02-11T16:32:22.590Z,103528.06
2023-02-11T16:37:25.186Z,103523.91
2023-02-11T16:42:26.869Z,103520.78
2023-02-11T16:47:28.927Z,103535.34
2023-02-11T16:52:31.758Z,103533.59
2023-02-11T16:57:33.258Z,103532.97
2023-02-11T17:02:37.246Z,103550.19
2023-02-11T17:07:38.761Z,103542.28
2023-02-11T17:12:40.278Z,103558.81
2023-02-11T17:17:41.942Z,103559.69
2023-02-11T17:22:43.549Z,103564.41
2023-02-11T17:27:45.508Z,103573.66
2023-02-11T17:32:47.428Z,103580.13
2023-02-11T17:37:49.004Z,103583.19
2023-02-11T17:42:50.620Z,103587.56
2023-02-11T17:47:52.297Z,103587.66
2023-02-11T17:52:53.806Z,103592.94
2023-02-11T17:57:55.446Z,103599.31
2023-02-11T18:02:57.890Z,103613.28
2023-02-11T18:07:59.441Z,103612.50
2023-02-11T18:13:01.814Z,103624.06
2023-02-11T18:18:03.810Z,103625.91
2023-02-11T18:23:05.332Z,103628.09
2023-02-11T18:28:08.134Z,103629.47
2023-02-11T18:33:12.680Z,103632.28
2023-02-11T18:38:14.217Z,103641.56
2023-02-11T18:43:16.242Z,103648.94
2023-02-11T18:48:18.307Z,103647.16
2023-02-11T18:53:20.127Z,103643.41
2023-02-11T18:58:21.697Z,103645.59
2023-02-11T19:03:23.236Z,103641.53
2023-02-11T19:08:24.768Z,103654.25
2023-02-11T19:13:28.593Z,103647.84
2023-02-11T19:18:30.079Z,103657.84
2023-02-11T19:23:31.599Z,103661.69
2023-02-11T19:28:35.207Z,103669.19
2023-02-11T19:33:37.080Z,103669.59
2023-02-11T19:38:38.603Z,103669.28
2023-02-11T19:43:40.973Z,103672.56
2023-02-11T19:48:42.533Z,103677.63
2023-02-11T19:53:44.573Z,103687.28
2023-02-11T19:58:46.171Z,103668.41
2023-02-11T20:03:55.351Z,103684.47
2023-02-11T20:09:06.395Z,103701.13
2023-02-11T20:14:10.453Z,103699.72
2023-02-11T20:19:16.826Z,103697.19
2023-02-11T20:24:19.031Z,103702.09
2023-02-11T20:29:20.812Z,103697.03
2023-02-11T20:34:22.493Z,103696.88
2023-02-11T20:39:25.594Z,103696.97
2023-02-11T20:44:27.415Z,103708.16
2023-02-11T20:49:29.046Z,103701.38
2023-02-11T20:54:30.893Z,103703.34
2023-02-11T20:59:32.770Z,103712.78
2023-02-11T21:04:34.493Z,103725.81
2023-02-11T21:09:36.043Z,103721.47
2023-02-11T21:14:37.541Z,103730.63
2023-02-11T21:19:39.255Z,103736.19
2023-02-11T21:24:40.874Z,103740.72
2023-02-11T21:29:53.377Z,103745.53
2023-02-11T21:34:55.900Z,103745.19
2023-02-11T21:39:57.465Z,103756.44
2023-02-11T21:44:58.960Z,103752.97
2023-02-11T21:50:00.515Z,103766.47
2023-02-11T21:55:01.996Z,103770.94
2023-02-11T22:00:05.935Z,103773.75
2023-02-11T22:05:07.512Z,103779.56
2023-02-11T22:10:09.775Z,103779.75
2023-02-11T22:15:11.429Z,103780.91
2023-02-11T22:20:12.963Z,103773.06
2023-02-11T22:25:14.436Z,103785.88
2023-02-11T22:30:16.538Z,103773.72
2023-02-11T22:35:18.025Z,103775.34
2023-02-11T22:40:19.611Z,103780.06
2023-02-11T22:45:21.090Z,103780.34
2023-02-11T22:50:22.624Z,103784.22
2023-02-11T22:55:24.182Z,103797.13
2023-02-11T23:00:26.415Z,103799.19
2023-02-11T23:05:27.894Z,103818.13
2023-02-11T23:10:29.427Z,103811.06
2023-02-11T23:15:31.471Z,103809.34
2023-02-11T23:20:37.587Z,103817.00
2023-02-11T23:25:44.990Z,103807.25
2023-02-11T23:30:46.540Z,103812.56
2023-02-11T23:35:48.750Z,103820.59
2023-02-11T23:40:50.251Z,103828.53
2023-02-11T23:45:52.184Z,103826.09
2023-02-11T23:50:53.871Z,103826.41
2023-02-11T23:55:55.733Z,103814.66
